Yu Xian, China
Current Conditions -  °F | °C
As of 12:00 AM on Monday 24 Nov 2014 (Local Time) from ZBSJ Reporting Station
Haze Haze  
Wind Chill: 28°   Ceiling: Unl
Heat Index: 34°   Visibility: 1mi
Dew Point: 32°   Wind: 7mph
Humidity: 93%   Direction: 320°NW
Pressure: 30.33"   Gusts: NA
Location:  39.83°N, 114.57°E
Report Text: ZBSJ 231600Z 32003MPS 1600 BR NSC 01/00 Q1027 NOSIG
Loading
Personal Weather Stations






























Interactive Weather Map New forecast layout! Learn more

10-Day Weather Forecast

Advertisements
Track Severe Weather on mobile